createdAt,value
2019-01-18T00:00:49.140Z,2.86
2019-01-18T00:01:49.192Z,2.86
2019-01-18T00:02:49.459Z,2.83
2019-01-18T00:03:49.482Z,2.83
2019-01-18T00:04:49.786Z,2.82
2019-01-18T00:05:49.141Z,2.82
2019-01-18T00:06:49.146Z,2.82
2019-01-18T00:08:02.347Z,2.8
2019-01-18T00:08:49.095Z,2.82
2019-01-18T00:09:49.180Z,2.82
2019-01-18T00:10:49.245Z,2.82
2019-01-18T00:11:49.322Z,2.8
2019-01-18T00:12:49.199Z,2.83
2019-01-18T00:13:49.140Z,2.82
2019-01-18T00:14:49.453Z,2.79
2019-01-18T00:15:49.172Z,2.76
2019-01-18T00:16:49.344Z,2.76
2019-01-18T00:17:49.253Z,2.8
2019-01-18T00:18:49.120Z,2.8
2019-01-18T00:19:48.913Z,2.86
2019-01-18T00:20:49.133Z,2.89
2019-01-18T00:21:49.182Z,2.87
2019-01-18T00:22:49.500Z,2.86
2019-01-18T00:23:49.891Z,2.84
2019-01-18T00:24:49.521Z,2.83
2019-01-18T00:25:49.101Z,2.84
2019-01-18T00:26:49.256Z,2.86
2019-01-18T00:27:49.128Z,2.84
2019-01-18T00:28:49.317Z,2.83
2019-01-18T00:29:49.115Z,2.86
2019-01-18T00:30:49.087Z,2.86
2019-01-18T00:31:49.187Z,2.82
2019-01-18T00:32:49.126Z,2.83
2019-01-18T00:33:49.145Z,2.83
2019-01-18T00:34:56.041Z,2.84
2019-01-18T00:35:49.126Z,2.84
2019-01-18T00:37:06.921Z,2.87
2019-01-18T00:37:49.046Z,2.86
2019-01-18T00:38:49.131Z,2.84
2019-01-18T00:39:49.373Z,2.84
2019-01-18T00:40:49.131Z,2.86
2019-01-18T00:41:49.352Z,2.87
2019-01-18T00:42:49.086Z,2.84
2019-01-18T00:43:49.116Z,2.86
2019-01-18T00:44:49.075Z,2.83
2019-01-18T00:45:49.128Z,2.87
2019-01-18T00:46:49.000Z,2.87
2019-01-18T00:47:49.042Z,2.86
2019-01-18T00:48:49.123Z,2.86
2019-01-18T00:49:49.119Z,2.83
2019-01-18T00:50:49.484Z,2.82
2019-01-18T00:51:49.149Z,2.83
2019-01-18T00:52:49.073Z,2.82
2019-01-18T00:53:49.828Z,2.84
2019-01-18T00:54:49.394Z,2.82
2019-01-18T00:55:50.646Z,2.82
2019-01-18T00:56:49.131Z,2.86
2019-01-18T00:57:49.086Z,2.89
2019-01-18T00:58:49.042Z,2.87
2019-01-18T00:59:49.332Z,2.89
2019-01-18T01:00:49.236Z,2.87
2019-01-18T01:01:49.069Z,2.89
2019-01-18T01:02:49.475Z,2.89
2019-01-18T01:03:50.619Z,2.89
2019-01-18T01:04:49.388Z,2.89
2019-01-18T01:05:49.377Z,2.93
2019-01-18T01:06:49.174Z,2.9
2019-01-18T01:07:49.729Z,2.92
2019-01-18T01:08:49.038Z,2.87
2019-01-18T01:09:51.073Z,2.89
2019-01-18T01:10:49.586Z,2.9
2019-01-18T01:11:49.727Z,2.93
2019-01-18T01:12:49.066Z,2.93
2019-01-18T01:13:49.223Z,2.9
2019-01-18T01:14:48.985Z,2.92
2019-01-18T01:15:49.047Z,2.9
2019-01-18T01:16:49.145Z,2.9
2019-01-18T01:17:49.086Z,2.9
2019-01-18T01:18:49.110Z,2.86
2019-01-18T01:19:49.070Z,2.92
2019-01-18T01:20:49.097Z,2.92
2019-01-18T01:21:49.311Z,2.93
2019-01-18T01:22:49.190Z,2.93
2019-01-18T01:23:49.296Z,2.94
2019-01-18T01:24:49.410Z,2.94
2019-01-18T01:25:49.106Z,2.94
2019-01-18T01:26:49.069Z,2.94
2019-01-18T01:27:49.009Z,2.94
2019-01-18T01:28:49.127Z,2.94
2019-01-18T01:29:49.335Z,2.99
2019-01-18T01:30:49.158Z,2.99
2019-01-18T01:31:49.036Z,2.93
2019-01-18T01:32:49.058Z,2.92
2019-01-18T01:33:49.283Z,2.93
2019-01-18T01:34:49.005Z,2.93
2019-01-18T01:35:49.073Z,2.9
2019-01-18T01:36:49.412Z,2.87
2019-01-18T01:37:49.142Z,2.87
2019-01-18T01:38:49.200Z,2.84
2019-01-18T01:39:49.236Z,2.84
2019-01-18T01:40:48.804Z,2.83
2019-01-18T01:41:49.052Z,2.83
2019-01-18T01:42:49.055Z,2.82
2019-01-18T01:44:10.054Z,2.84
2019-01-18T01:44:49.120Z,2.83
2019-01-18T01:45:49.097Z,2.84
2019-01-18T01:46:49.360Z,2.86
2019-01-18T01:47:49.186Z,2.83
2019-01-18T01:48:49.068Z,2.86
2019-01-18T01:49:49.076Z,2.86
2019-01-18T01:50:49.254Z,2.86
2019-01-18T01:51:49.078Z,2.92
2019-01-18T01:52:49.197Z,2.92
2019-01-18T01:53:49.223Z,2.9
2019-01-18T01:54:49.080Z,2.92
2019-01-18T01:55:49.217Z,2.97
2019-01-18T01:56:49.070Z,2.96
2019-01-18T01:58:49.189Z,2.96
2019-01-18T01:59:50.198Z,2.97
2019-01-18T02:00:48.998Z,2.97
2019-01-18T02:01:49.290Z,2.96
2019-01-18T02:02:48.983Z,2.99
2019-01-18T02:03:49.283Z,2.94
2019-01-18T02:04:50.791Z,2.94
2019-01-18T02:05:49.321Z,2.93
2019-01-18T02:06:55.509Z,2.94
2019-01-18T02:07:49.512Z,2.9
2019-01-18T02:08:48.980Z,2.93
2019-01-18T02:09:49.013Z,2.9
2019-01-18T02:10:48.999Z,2.89
2019-01-18T02:11:49.063Z,2.9
2019-01-18T02:12:48.986Z,2.83
2019-01-18T02:13:49.248Z,2.83
2019-01-18T02:14:49.023Z,2.8
2019-01-18T02:15:48.952Z,2.79
2019-01-18T02:16:49.087Z,2.77
2019-01-18T02:17:49.115Z,2.77
2019-01-18T02:18:48.979Z,2.79
2019-01-18T02:19:49.359Z,2.79
2019-01-18T02:20:48.992Z,2.77
2019-01-18T02:21:48.922Z,2.8
2019-01-18T02:22:49.245Z,2.79
2019-01-18T02:23:49.086Z,2.75
2019-01-18T02:24:48.467Z,2.76
2019-01-18T02:25:49.535Z,2.77
2019-01-18T02:26:49.312Z,2.72
2019-01-18T02:27:48.935Z,2.71
2019-01-18T02:28:49.042Z,2.71
2019-01-18T02:29:48.866Z,2.71
2019-01-18T02:30:49.005Z,2.66
2019-01-18T02:31:49.009Z,2.68
2019-01-18T02:32:49.034Z,2.68
2019-01-18T02:33:49.193Z,2.69
2019-01-18T02:34:48.966Z,2.68
2019-01-18T02:35:48.990Z,2.71
2019-01-18T02:36:48.871Z,2.72
2019-01-18T02:37:49.374Z,2.69
2019-01-18T02:38:49.011Z,2.71
2019-01-18T02:39:49.144Z,2.69
2019-01-18T02:40:48.989Z,2.68
2019-01-18T02:41:48.967Z,2.69
2019-01-18T02:42:49.148Z,2.65
2019-01-18T02:43:49.054Z,2.64
2019-01-18T02:44:49.703Z,2.64
2019-01-18T02:45:55.782Z,2.64
2019-01-18T02:46:50.789Z,2.62
2019-01-18T02:47:49.089Z,2.59
2019-01-18T02:48:48.986Z,2.61
2019-01-18T02:49:49.101Z,2.62
2019-01-18T02:50:49.127Z,2.65
2019-01-18T02:51:49.212Z,2.65
2019-01-18T02:52:48.961Z,2.59
2019-01-18T02:53:48.997Z,2.64
2019-01-18T02:54:48.862Z,2.61
2019-01-18T02:55:49.001Z,2.61
2019-01-18T02:56:48.992Z,2.62
2019-01-18T02:57:48.867Z,2.59
2019-01-18T02:58:48.910Z,2.61
2019-01-18T02:59:49.324Z,2.58
2019-01-18T03:00:48.966Z,2.55
2019-01-18T03:02:49.234Z,2.59
2019-01-18T03:03:48.861Z,2.58
2019-01-18T03:04:48.889Z,2.58
2019-01-18T03:05:49.210Z,2.58
2019-01-18T03:06:49.423Z,2.56
2019-01-18T03:07:48.860Z,2.55
2019-01-18T03:08:48.835Z,2.55
2019-01-18T03:09:49.031Z,2.52
2019-01-18T03:10:48.836Z,2.52
2019-01-18T03:11:49.270Z,2.51
2019-01-18T03:12:49.216Z,2.52
2019-01-18T03:13:48.816Z,2.51
2019-01-18T03:14:49.017Z,2.52
2019-01-18T03:15:48.976Z,2.55
2019-01-18T03:16:48.824Z,2.52
2019-01-18T03:17:49.324Z,2.52
2019-01-18T03:18:48.790Z,2.48
2019-01-18T03:19:49.208Z,2.52
2019-01-18T03:20:50.690Z,2.49
2019-01-18T03:21:48.809Z,2.49
2019-01-18T03:22:49.082Z,2.48
2019-01-18T03:23:49.123Z,2.52
2019-01-18T03:24:48.833Z,2.52
2019-01-18T03:25:48.795Z,2.49
2019-01-18T03:26:49.256Z,2.47
2019-01-18T03:27:49.114Z,2.51
2019-01-18T03:28:49.013Z,2.51
2019-01-18T03:29:48.811Z,2.51
2019-01-18T03:30:48.805Z,2.49
2019-01-18T03:31:49.112Z,2.49
2019-01-18T03:32:48.985Z,2.47
2019-01-18T03:33:48.803Z,2.48
2019-01-18T03:34:49.213Z,2.45
2019-01-18T03:35:48.806Z,2.44
2019-01-18T03:36:49.054Z,2.47
2019-01-18T03:37:49.053Z,2.48
2019-01-18T03:38:50.378Z,2.52
2019-01-18T03:39:48.782Z,2.49
2019-01-18T03:40:55.730Z,2.49
2019-01-18T03:41:49.055Z,2.48
2019-01-18T03:42:49.095Z,2.48
2019-01-18T03:43:48.930Z,2.48
2019-01-18T03:44:48.823Z,2.49
2019-01-18T03:45:48.982Z,2.47
2019-01-18T03:46:49.132Z,2.45
2019-01-18T03:47:48.790Z,2.44
2019-01-18T03:48:48.924Z,2.47
2019-01-18T03:49:48.933Z,2.45
2019-01-18T03:50:48.827Z,2.44
2019-01-18T03:52:48.829Z,2.47
2019-01-18T03:53:49.115Z,2.45
2019-01-18T03:54:48.766Z,2.45
2019-01-18T03:55:48.771Z,2.45
2019-01-18T03:56:49.080Z,2.45
2019-01-18T03:57:49.069Z,2.43
2019-01-18T03:58:48.786Z,2.47
2019-01-18T03:59:49.286Z,2.49
2019-01-18T04:00:49.112Z,2.47
2019-01-18T04:01:48.764Z,2.45
2019-01-18T04:02:48.843Z,2.45
2019-01-18T04:03:48.761Z,2.44
2019-01-18T04:04:48.791Z,2.41
2019-01-18T04:05:49.024Z,2.43
2019-01-18T04:06:48.851Z,2.41
2019-01-18T04:07:48.733Z,2.4
2019-01-18T04:08:48.830Z,2.43
2019-01-18T04:09:48.760Z,2.38
2019-01-18T04:10:48.816Z,2.4
2019-01-18T04:11:48.933Z,2.4
2019-01-18T04:12:48.971Z,2.41
2019-01-18T04:13:48.839Z,2.38
2019-01-18T04:14:48.748Z,2.36
2019-01-18T04:15:48.801Z,2.41
2019-01-18T04:16:48.748Z,2.43
2019-01-18T04:17:48.747Z,2.41
2019-01-18T04:18:48.964Z,2.4
2019-01-18T04:20:49.588Z,2.41
2019-01-18T04:21:49.144Z,2.4
2019-01-18T04:22:48.810Z,2.4
2019-01-18T04:23:49.160Z,2.43
2019-01-18T04:24:49.568Z,2.41
2019-01-18T04:25:48.828Z,2.41
2019-01-18T04:26:48.719Z,2.41
2019-01-18T04:27:48.844Z,2.41
2019-01-18T04:28:48.805Z,2.38
2019-01-18T04:29:49.096Z,2.41
2019-01-18T04:30:48.835Z,2.37
2019-01-18T04:31:49.129Z,2.31
2019-01-18T04:32:48.959Z,2.36
2019-01-18T04:33:49.234Z,2.36
2019-01-18T04:34:49.182Z,2.4
2019-01-18T04:35:49.237Z,2.41
2019-01-18T04:36:49.521Z,2.44
2019-01-18T04:37:48.761Z,2.38
2019-01-18T04:38:49.650Z,2.36
2019-01-18T04:39:48.826Z,2.36
2019-01-18T04:40:52.686Z,2.34
2019-01-18T04:41:48.792Z,2.34
2019-01-18T04:42:48.893Z,2.34
2019-01-18T04:43:49.204Z,2.34
2019-01-18T04:44:49.024Z,2.33
2019-01-18T04:45:49.022Z,2.37
2019-01-18T04:46:49.027Z,2.37
2019-01-18T04:47:49.144Z,2.38
2019-01-18T04:48:48.795Z,2.36
2019-01-18T04:49:50.131Z,2.37
2019-01-18T04:50:48.907Z,2.37
2019-01-18T04:51:48.949Z,2.37
2019-01-18T04:52:48.693Z,2.34
2019-01-18T04:53:50.147Z,2.3
2019-01-18T04:54:48.654Z,2.31
2019-01-18T04:55:48.714Z,2.34
2019-01-18T04:56:48.921Z,2.28
2019-01-18T04:57:49.700Z,2.28
2019-01-18T04:58:49.092Z,2.27
2019-01-18T04:59:49.427Z,2.31
2019-01-18T05:00:48.698Z,2.3
2019-01-18T05:01:56.726Z,2.3
2019-01-18T05:02:49.126Z,2.31
2019-01-18T05:03:49.438Z,2.28
2019-01-18T05:04:49.036Z,2.28
2019-01-18T05:05:49.873Z,2.27
2019-01-18T05:06:48.793Z,2.28
2019-01-18T05:07:48.825Z,2.26
2019-01-18T05:08:48.873Z,2.28
2019-01-18T05:09:48.928Z,2.31
2019-01-18T05:10:48.716Z,2.27
2019-01-18T05:11:48.646Z,2.27
2019-01-18T05:12:48.640Z,2.27
2019-01-18T05:13:48.819Z,2.28
2019-01-18T05:14:48.751Z,2.27
2019-01-18T05:15:48.740Z,2.27
2019-01-18T05:16:48.700Z,2.27
2019-01-18T05:17:48.669Z,2.3
2019-01-18T05:18:49.136Z,2.28
2019-01-18T05:19:48.804Z,2.27
2019-01-18T05:20:49.098Z,2.26
2019-01-18T05:21:48.420Z,2.27
2019-01-18T05:22:48.726Z,2.27
2019-01-18T05:23:49.299Z,2.3
2019-01-18T05:24:54.914Z,2.34
2019-01-18T05:25:48.694Z,2.28
2019-01-18T05:26:48.680Z,2.31
2019-01-18T05:27:48.688Z,2.3
2019-01-18T05:28:48.777Z,2.33
2019-01-18T05:29:48.628Z,2.34
2019-01-18T05:30:48.957Z,2.31
2019-01-18T05:31:48.790Z,2.34
2019-01-18T05:32:49.045Z,2.31
2019-01-18T05:33:48.982Z,2.31
2019-01-18T05:34:49.167Z,2.3
2019-01-18T05:35:48.714Z,2.28
2019-01-18T05:36:48.632Z,2.31
2019-01-18T05:37:48.867Z,2.3
2019-01-18T05:38:49.259Z,2.26
2019-01-18T05:39:48.688Z,2.28
2019-01-18T05:40:48.684Z,2.24
2019-01-18T05:41:48.605Z,2.26
2019-01-18T05:42:48.612Z,2.26
2019-01-18T05:43:48.652Z,2.24
2019-01-18T05:44:48.683Z,2.21
2019-01-18T05:45:49.087Z,2.24
2019-01-18T05:46:48.660Z,2.26
2019-01-18T05:47:48.723Z,2.22
2019-01-18T05:48:48.642Z,2.21
2019-01-18T05:49:48.624Z,2.22
2019-01-18T05:50:48.400Z,2.22
2019-01-18T05:51:48.661Z,2.24
2019-01-18T05:52:48.979Z,2.26
2019-01-18T05:53:48.745Z,2.27
2019-01-18T05:54:48.639Z,2.28
2019-01-18T05:55:48.610Z,2.24
2019-01-18T05:56:48.639Z,2.26
2019-01-18T05:57:48.651Z,2.26
2019-01-18T05:58:48.610Z,2.28
2019-01-18T05:59:48.670Z,2.31
2019-01-18T06:00:55.845Z,2.28
2019-01-18T06:01:48.688Z,2.28
2019-01-18T06:02:48.781Z,2.3
2019-01-18T06:03:56.167Z,2.3
2019-01-18T06:04:48.859Z,2.28
2019-01-18T06:05:48.686Z,2.27
2019-01-18T06:06:48.689Z,2.26
2019-01-18T06:07:48.922Z,2.26
2019-01-18T06:08:48.601Z,2.26
2019-01-18T06:09:48.546Z,2.26
2019-01-18T06:10:48.565Z,2.22
2019-01-18T06:11:48.570Z,2.26
2019-01-18T06:12:55.271Z,2.28
2019-01-18T06:13:50.392Z,2.3
2019-01-18T06:14:48.625Z,2.3
2019-01-18T06:15:48.674Z,2.3
2019-01-18T06:16:48.882Z,2.34
2019-01-18T06:17:48.538Z,2.3
2019-01-18T06:18:48.536Z,2.3
2019-01-18T06:19:48.861Z,2.31
2019-01-18T06:20:48.825Z,2.27
2019-01-18T06:21:48.882Z,2.26
2019-01-18T06:22:48.794Z,2.26
2019-01-18T06:23:48.963Z,2.27
2019-01-18T06:24:48.588Z,2.27
2019-01-18T06:25:49.465Z,2.28
2019-01-18T06:26:48.874Z,2.37
2019-01-18T06:27:48.600Z,2.31
2019-01-18T06:28:49.358Z,2.33
2019-01-18T06:29:48.691Z,2.37
2019-01-18T06:30:48.846Z,2.36
2019-01-18T06:31:48.629Z,2.41
2019-01-18T06:32:48.603Z,2.37
2019-01-18T06:34:08.768Z,2.33
2019-01-18T06:34:48.566Z,2.31
2019-01-18T06:35:48.782Z,2.34
2019-01-18T06:36:48.657Z,2.31
2019-01-18T06:37:49.430Z,2.33
2019-01-18T06:38:48.514Z,2.33
2019-01-18T06:39:48.904Z,2.33
2019-01-18T06:40:48.752Z,2.37
2019-01-18T06:41:49.478Z,2.4
2019-01-18T06:42:48.621Z,2.4
2019-01-18T06:43:48.679Z,2.37
2019-01-18T06:44:48.579Z,2.37
2019-01-18T06:45:48.349Z,2.34
2019-01-18T06:46:49.079Z,2.37
2019-01-18T06:47:48.540Z,2.33
2019-01-18T06:48:48.559Z,2.36
2019-01-18T06:49:48.632Z,2.37
2019-01-18T06:50:48.653Z,2.36
2019-01-18T06:51:48.794Z,2.36
2019-01-18T06:52:48.831Z,2.28
2019-01-18T06:53:49.540Z,2.27
2019-01-18T06:54:48.823Z,2.27
2019-01-18T06:55:48.580Z,2.27
2019-01-18T06:57:08.078Z,2.28
2019-01-18T06:57:48.758Z,2.27
2019-01-18T06:58:48.756Z,2.3
2019-01-18T06:59:48.505Z,2.34
2019-01-18T07:00:49.301Z,2.37
2019-01-18T07:01:50.350Z,2.43
2019-01-18T07:02:49.086Z,2.37
2019-01-18T07:03:48.784Z,2.33
2019-01-18T07:04:48.557Z,2.33
2019-01-18T07:05:49.239Z,2.31
2019-01-18T07:06:48.700Z,2.34
2019-01-18T07:07:49.227Z,2.36
2019-01-18T07:08:48.474Z,2.36
2019-01-18T07:09:48.514Z,2.31
2019-01-18T07:10:48.832Z,2.28
2019-01-18T07:11:48.549Z,2.31
2019-01-18T07:12:48.585Z,2.27
2019-01-18T07:13:50.308Z,2.34
2019-01-18T07:14:48.674Z,2.33
2019-01-18T07:15:48.471Z,2.34
2019-01-18T07:16:48.606Z,2.36
2019-01-18T07:17:48.639Z,2.38
2019-01-18T07:18:48.475Z,2.41
2019-01-18T07:19:49.004Z,2.45
2019-01-18T07:20:48.535Z,2.45
2019-01-18T07:21:48.729Z,2.47
2019-01-18T07:22:48.534Z,2.51
2019-01-18T07:23:48.501Z,2.54
2019-01-18T07:24:48.510Z,2.52
2019-01-18T07:25:48.672Z,2.52
2019-01-18T07:26:48.446Z,2.55
2019-01-18T07:27:48.457Z,2.55
2019-01-18T07:28:48.566Z,2.55
2019-01-18T07:29:48.653Z,2.55
2019-01-18T07:30:48.502Z,2.54
2019-01-18T07:31:48.465Z,2.58
2019-01-18T07:32:49.485Z,2.56
2019-01-18T07:33:48.447Z,2.56
2019-01-18T07:34:48.680Z,2.59
2019-01-18T07:35:48.474Z,2.59
2019-01-18T07:36:48.472Z,2.59
2019-01-18T07:37:48.477Z,2.61
2019-01-18T07:38:48.408Z,2.56
2019-01-18T07:39:48.491Z,2.58
2019-01-18T07:40:48.564Z,2.59
2019-01-18T07:41:48.477Z,2.61
2019-01-18T07:42:48.485Z,2.62
2019-01-18T07:43:48.605Z,2.59
2019-01-18T07:45:05.655Z,2.54
2019-01-18T07:45:48.561Z,2.51
2019-01-18T07:46:47.988Z,2.54
2019-01-18T07:47:48.635Z,2.54
2019-01-18T07:48:48.578Z,2.56
2019-01-18T07:49:48.698Z,2.58
2019-01-18T07:50:48.392Z,2.59
2019-01-18T07:52:00.946Z,2.56
2019-01-18T07:52:48.585Z,2.52
2019-01-18T07:53:48.786Z,2.37
2019-01-18T07:54:48.442Z,2.4
2019-01-18T07:55:48.453Z,2.43
2019-01-18T07:56:48.492Z,2.41
2019-01-18T07:57:48.885Z,2.4
2019-01-18T07:58:48.815Z,2.34
2019-01-18T07:59:48.790Z,2.38
2019-01-18T08:00:48.788Z,2.38
2019-01-18T08:01:48.908Z,2.37
2019-01-18T08:03:48.753Z,2.38
2019-01-18T08:04:48.408Z,2.4
2019-01-18T08:05:50.071Z,2.4
2019-01-18T08:07:48.514Z,2.38
2019-01-18T08:08:48.725Z,2.38
2019-01-18T08:09:48.447Z,2.41
2019-01-18T08:10:48.387Z,2.44
2019-01-18T08:11:48.482Z,2.43
2019-01-18T08:12:50.196Z,2.45
2019-01-18T08:13:48.502Z,2.44
2019-01-18T08:14:48.592Z,2.48
2019-01-18T08:15:48.473Z,2.43
2019-01-18T08:16:48.635Z,2.43
2019-01-18T08:17:48.442Z,2.43
2019-01-18T08:18:48.654Z,2.4
2019-01-18T08:19:48.397Z,2.4
2019-01-18T08:21:56.569Z,2.38
2019-01-18T08:22:48.626Z,2.37
2019-01-18T08:23:48.419Z,2.37
2019-01-18T08:24:49.097Z,2.36
2019-01-18T08:25:48.473Z,2.33
2019-01-18T08:26:48.573Z,2.36
2019-01-18T08:27:48.352Z,2.36
2019-01-18T08:28:49.609Z,2.37
2019-01-18T08:29:55.367Z,2.36
2019-01-18T08:30:49.341Z,2.37
2019-01-18T08:31:48.250Z,2.4
2019-01-18T08:32:48.434Z,2.38
2019-01-18T08:33:48.421Z,2.38
2019-01-18T08:34:48.453Z,2.34
2019-01-18T08:35:48.365Z,2.34
2019-01-18T08:36:48.627Z,2.33
2019-01-18T08:37:48.729Z,2.37
2019-01-18T08:38:48.401Z,2.38
2019-01-18T08:39:48.486Z,2.41
2019-01-18T08:40:48.415Z,2.44
2019-01-18T08:41:49.369Z,2.44
2019-01-18T08:42:48.346Z,2.48
2019-01-18T08:43:50.165Z,2.49
2019-01-18T08:44:48.778Z,2.52
2019-01-18T08:45:48.498Z,2.52
2019-01-18T08:46:48.339Z,2.55
2019-01-18T08:47:48.494Z,2.54
2019-01-18T08:48:48.600Z,2.58
2019-01-18T08:49:48.381Z,2.59
2019-01-18T08:50:48.307Z,2.61
2019-01-18T08:51:48.495Z,2.61
2019-01-18T08:52:48.297Z,2.64
2019-01-18T08:53:48.486Z,2.64
2019-01-18T08:54:48.327Z,2.62
2019-01-18T08:55:48.381Z,2.59
2019-01-18T08:56:48.808Z,2.62
2019-01-18T08:57:48.501Z,2.62
2019-01-18T08:58:48.485Z,2.62
2019-01-18T08:59:48.423Z,2.58
2019-01-18T09:00:49.238Z,2.54
2019-01-18T09:01:48.719Z,2.56
2019-01-18T09:02:49.212Z,2.55
2019-01-18T09:03:48.549Z,2.55
2019-01-18T09:04:48.407Z,2.52
2019-01-18T09:05:51.548Z,2.55
2019-01-18T09:06:48.412Z,2.55
2019-01-18T09:07:48.352Z,2.56
2019-01-18T09:08:48.388Z,2.55
2019-01-18T09:10:03.175Z,2.55
2019-01-18T09:10:48.298Z,2.56
2019-01-18T09:11:48.324Z,2.56
2019-01-18T09:12:48.285Z,2.54
2019-01-18T09:13:48.369Z,2.56
2019-01-18T09:14:48.317Z,2.56
2019-01-18T09:15:48.416Z,2.54
2019-01-18T09:16:48.491Z,2.56
2019-01-18T09:17:48.295Z,2.55
2019-01-18T09:18:48.297Z,2.56
2019-01-18T09:19:48.300Z,2.61
2019-01-18T09:20:48.288Z,2.62
2019-01-18T09:21:48.273Z,2.62
2019-01-18T09:22:48.286Z,2.62
2019-01-18T09:23:48.327Z,2.62
2019-01-18T09:24:48.464Z,2.62
2019-01-18T09:25:48.307Z,2.62
2019-01-18T09:26:48.497Z,2.62
2019-01-18T09:27:48.497Z,2.65
2019-01-18T09:28:48.591Z,2.65
2019-01-18T09:29:49.610Z,2.68
2019-01-18T09:30:48.420Z,2.69
2019-01-18T09:31:48.641Z,2.72
2019-01-18T09:32:48.312Z,2.73
2019-01-18T09:33:48.418Z,2.72
2019-01-18T09:34:50.106Z,2.73
2019-01-18T09:35:49.078Z,2.72
2019-01-18T09:36:48.554Z,2.76
2019-01-18T09:37:48.547Z,2.76
2019-01-18T09:38:48.420Z,2.73
2019-01-18T09:39:48.677Z,2.76
2019-01-18T09:40:48.301Z,2.79
2019-01-18T09:41:48.692Z,2.79
2019-01-18T09:42:48.530Z,2.82
2019-01-18T09:43:48.686Z,2.84
2019-01-18T09:44:48.536Z,2.86
2019-01-18T09:45:48.346Z,2.89
2019-01-18T09:46:48.546Z,2.93
2019-01-18T09:47:48.331Z,2.97
2019-01-18T09:48:48.517Z,2.99
2019-01-18T09:49:48.489Z,3
2019-01-18T09:50:48.343Z,3.04
2019-01-18T09:51:48.335Z,3.07
2019-01-18T09:52:49.186Z,3.08
2019-01-18T09:53:48.301Z,3.12
2019-01-18T09:54:49.102Z,3.17
2019-01-18T09:55:48.287Z,3.15
2019-01-18T09:56:48.420Z,3.14
2019-01-18T09:57:48.507Z,3.14
2019-01-18T09:58:48.486Z,3.12
2019-01-18T09:59:48.439Z,3.07
2019-01-18T10:00:48.300Z,3.12
2019-01-18T10:01:50.087Z,3.17
2019-01-18T10:02:48.252Z,3.21
2019-01-18T10:04:12.388Z,3.25
2019-01-18T10:04:48.589Z,3.29
2019-01-18T10:05:48.307Z,3.31
2019-01-18T10:06:48.547Z,3.31
2019-01-18T10:07:48.583Z,3.29
2019-01-18T10:08:48.664Z,3.31
2019-01-18T10:09:48.364Z,3.31
2019-01-18T10:10:48.268Z,3.34
2019-01-18T10:11:48.225Z,3.32
2019-01-18T10:12:49.534Z,3.24
2019-01-18T10:13:48.611Z,3.22
2019-01-18T10:14:48.192Z,3.25
2019-01-18T10:15:48.291Z,3.24
2019-01-18T10:16:48.315Z,3.24
2019-01-18T10:17:48.425Z,3.28
2019-01-18T10:18:49.913Z,3.29
2019-01-18T10:19:48.330Z,3.35
2019-01-18T10:20:48.448Z,3.37
2019-01-18T10:21:50.018Z,3.39
2019-01-18T10:22:48.262Z,3.41
2019-01-18T10:23:48.278Z,3.42
2019-01-18T10:25:05.227Z,3.45
2019-01-18T10:25:48.222Z,3.48
2019-01-18T10:26:48.264Z,3.52
2019-01-18T10:27:48.413Z,3.55
2019-01-18T10:28:49.176Z,3.58
2019-01-18T10:29:48.607Z,3.61
2019-01-18T10:31:03.249Z,3.59
2019-01-18T10:31:56.470Z,3.55
2019-01-18T10:32:48.281Z,3.44
2019-01-18T10:33:48.388Z,3.45
2019-01-18T10:34:48.556Z,3.44
2019-01-18T10:36:12.022Z,3.48
2019-01-18T10:37:12.205Z,3.49
2019-01-18T10:38:13.553Z,3.49
2019-01-18T10:39:11.737Z,3.52
2019-01-18T10:40:13.565Z,3.52
2019-01-18T10:41:12.027Z,3.55
2019-01-18T10:42:12.556Z,3.55
2019-01-18T10:43:12.054Z,3.56
2019-01-18T10:44:11.785Z,3.56
2019-01-18T10:45:13.653Z,3.59
2019-01-18T10:46:12.728Z,3.61
2019-01-18T10:47:11.786Z,3.62
2019-01-18T10:48:12.530Z,3.63
2019-01-18T10:49:23.588Z,3.54
2019-01-18T10:50:11.825Z,3.49
2019-01-18T10:51:11.754Z,3.46
2019-01-18T10:52:12.270Z,3.46
2019-01-18T10:53:12.226Z,3.48
2019-01-18T10:54:12.123Z,3.51
2019-01-18T10:55:11.929Z,3.52
2019-01-18T10:56:12.196Z,3.55
2019-01-18T10:57:11.875Z,3.59
2019-01-18T10:58:12.282Z,3.62
2019-01-18T10:59:12.156Z,3.63
2019-01-18T11:00:11.753Z,3.66
2019-01-18T11:01:11.857Z,3.7
2019-01-18T11:02:11.803Z,3.7
2019-01-18T11:03:12.076Z,3.7
2019-01-18T11:04:11.826Z,3.67
2019-01-18T11:05:12.615Z,3.65
2019-01-18T11:06:11.759Z,3.62
2019-01-18T11:07:11.771Z,3.56
2019-01-18T11:08:17.737Z,3.51
2019-01-18T11:09:11.755Z,3.52
2019-01-18T11:10:11.808Z,3.55
2019-01-18T11:11:12.036Z,3.55
2019-01-18T11:12:13.541Z,3.56
2019-01-18T11:13:11.730Z,3.58
2019-01-18T11:14:12.253Z,3.51
2019-01-18T11:15:12.363Z,3.49
2019-01-18T11:16:11.965Z,3.48
2019-01-18T11:17:11.763Z,3.48
2019-01-18T11:18:12.634Z,3.51
2019-01-18T11:19:11.824Z,3.55
2019-01-18T11:20:12.096Z,3.54
2019-01-18T11:21:12.304Z,3.52
2019-01-18T11:22:12.118Z,3.52
2019-01-18T11:23:11.823Z,3.55
2019-01-18T11:24:11.812Z,3.52
2019-01-18T11:25:11.729Z,3.52
2019-01-18T11:26:11.677Z,3.51
2019-01-18T11:27:11.702Z,3.55
2019-01-18T11:28:12.180Z,3.55
2019-01-18T11:29:12.058Z,3.56
2019-01-18T11:30:19.392Z,3.58
2019-01-18T11:31:11.645Z,3.55
2019-01-18T11:32:14.144Z,3.54
2019-01-18T11:33:11.682Z,3.55
2019-01-18T11:34:11.980Z,3.56
2019-01-18T11:35:11.706Z,3.44
2019-01-18T11:36:13.512Z,3.48
2019-01-18T11:37:12.219Z,3.49
2019-01-18T11:38:12.329Z,3.52
2019-01-18T11:39:11.675Z,3.56
2019-01-18T11:40:11.629Z,3.62
2019-01-18T11:41:12.376Z,3.63
2019-01-18T11:42:12.888Z,3.69
2019-01-18T11:43:11.750Z,3.69
2019-01-18T11:44:11.812Z,3.77
2019-01-18T11:45:11.801Z,3.82
2019-01-18T11:46:11.666Z,3.86
2019-01-18T11:47:12.203Z,3.82
2019-01-18T11:48:11.774Z,3.77
2019-01-18T11:49:11.741Z,3.72
2019-01-18T11:50:12.091Z,3.69
2019-01-18T11:51:12.042Z,3.67
2019-01-18T11:52:11.832Z,3.69
2019-01-18T11:53:11.663Z,3.73
2019-01-18T11:54:20.209Z,3.77
2019-01-18T11:55:11.667Z,3.74
2019-01-18T11:56:12.028Z,3.74
2019-01-18T11:57:12.063Z,3.76
2019-01-18T11:58:12.144Z,3.73
2019-01-18T11:59:42.167Z,3.77
2019-01-18T12:00:40.643Z,3.79
2019-01-18T12:01:40.642Z,3.72
2019-01-18T12:02:42.133Z,3.55
2019-01-18T12:03:40.214Z,3.61
2019-01-18T12:04:40.361Z,3.66
2019-01-18T12:05:40.460Z,3.58
2019-01-18T12:06:47.352Z,3.56
2019-01-18T12:07:49.546Z,3.55
2019-01-18T12:08:42.138Z,3.56
2019-01-18T12:09:40.568Z,3.63
2019-01-18T12:10:40.078Z,3.62
2019-01-18T12:11:40.512Z,3.56
2019-01-18T12:12:40.555Z,3.58
2019-01-18T12:13:40.485Z,3.63
2019-01-18T12:14:40.305Z,3.63
2019-01-18T12:15:40.525Z,3.65
2019-01-18T12:16:40.405Z,3.66
2019-01-18T12:17:40.287Z,3.72
2019-01-18T12:18:40.391Z,3.69
2019-01-18T12:19:40.087Z,3.7
2019-01-18T12:20:40.349Z,3.66
2019-01-18T12:21:40.299Z,3.61
2019-01-18T12:22:40.674Z,3.55
2019-01-18T12:23:40.280Z,3.56
2019-01-18T12:24:40.324Z,3.56
2019-01-18T12:25:40.280Z,3.55
2019-01-18T12:26:40.599Z,3.56
2019-01-18T12:27:40.302Z,3.63
2019-01-18T12:28:40.295Z,3.62
2019-01-18T12:29:40.361Z,3.62
2019-01-18T12:30:41.065Z,3.67
2019-01-18T12:31:40.636Z,3.67
2019-01-18T12:32:42.116Z,3.72
2019-01-18T12:33:40.373Z,3.66
2019-01-18T12:34:40.412Z,3.58
2019-01-18T12:35:40.351Z,3.62
2019-01-18T12:36:40.539Z,3.62
2019-01-18T12:37:40.901Z,3.62
2019-01-18T12:38:40.580Z,3.61
2019-01-18T12:39:41.226Z,3.62
2019-01-18T12:40:40.413Z,3.62
2019-01-18T12:41:40.627Z,3.63
2019-01-18T12:42:40.822Z,3.63
2019-01-18T12:43:40.263Z,3.63
2019-01-18T12:44:40.473Z,3.61
2019-01-18T12:45:41.778Z,3.55
2019-01-18T12:46:40.586Z,3.55
2019-01-18T12:47:40.661Z,3.62
2019-01-18T12:48:40.553Z,3.63
2019-01-18T12:49:40.464Z,3.63
2019-01-18T12:50:40.553Z,3.66
2019-01-18T12:51:40.321Z,3.67
2019-01-18T12:52:40.240Z,3.67
2019-01-18T12:53:40.349Z,3.62
2019-01-18T12:54:40.801Z,3.63
2019-01-18T12:55:40.596Z,3.66
2019-01-18T12:56:40.799Z,3.66
2019-01-18T12:57:40.517Z,3.67
2019-01-18T12:58:40.333Z,3.7
2019-01-18T12:59:40.374Z,3.72
2019-01-18T13:00:40.241Z,3.74
2019-01-18T13:01:40.398Z,3.72
2019-01-18T13:02:40.394Z,3.73
2019-01-18T13:03:40.366Z,3.74
2019-01-18T13:04:40.437Z,3.74
2019-01-18T13:05:40.617Z,3.72
2019-01-18T13:06:41.486Z,3.74
2019-01-18T13:07:40.209Z,3.76
2019-01-18T13:08:40.675Z,3.79
2019-01-18T13:09:40.301Z,3.8
2019-01-18T13:10:40.531Z,3.83
2019-01-18T13:11:40.208Z,3.79
2019-01-18T13:12:40.343Z,3.76
2019-01-18T13:13:40.330Z,3.69
2019-01-18T13:14:40.724Z,3.74
2019-01-18T13:15:40.280Z,3.73
2019-01-18T13:16:40.301Z,3.77
2019-01-18T13:17:40.611Z,3.76
2019-01-18T13:18:41.174Z,3.79
2019-01-18T13:19:40.237Z,3.8
2019-01-18T13:20:40.301Z,3.77
2019-01-18T13:21:40.681Z,3.76
2019-01-18T13:22:40.673Z,3.72
2019-01-18T13:23:40.578Z,3.74
2019-01-18T13:24:40.316Z,3.77
2019-01-18T13:25:40.219Z,3.8
2019-01-18T13:26:40.389Z,3.76
2019-01-18T13:27:40.211Z,3.82
2019-01-18T13:28:40.248Z,3.77